Weather at H E B Hospital Heliport

Public forecast

Using degrees Fahrenheit for public forecast. Weather courtesy of forecast.io.

Closest aviation weather report (METAR) to H E B Hospital Heliport

Closest report is Dallas Fort Worth International Airport, 5.8 nm (10.8 km) NE.

2024/05/20 02:53 (retrieved 1 hour ago)

KDFW 200253Z 17010KT 10SM FEW250 28/19 A2981 RMK AO2 SLP085 T02780194 53003

Closest aviation forecast (TAF) to H E B Hospital Heliport

Forecast is more than 12 hours old.

Closest forecast is NAS Fort Worth JRB / Carswell Field, 16.4 nm (30.4 km) WSW.

2024/05/19 15:21 Ammendment (retrieved 13 hours ago)

TAF AMD KNFW 1915/2015 17015G25KT 9999 SCT050 QNH2982INS AUTOMATED SENSOR METWATCH 1922 TIL 2011 TX34/1921Z TN22/2012Z AMD 1515 FN20070